OCN4ES EDDN-LPPT
Flight info
| Callsign | OCN4ES |
|---|---|
| Flight time | 2h 51m |
| Altitude | 37000 |
| Route | BOLSI1C BOLSI Y166 DKB N869 NATOR/N0445F370 DCT LUTIX DCT BENOT DCT NEMOS DCT NINTU DCT MEBAK DCT REPSI DCT LERGA DCT MINSO DCT NARAK DCT AGN DCT PIPOR DCT PPN DCT MIRPO DCT DGO DCT NEA DCT ARDID DCT INBOM |
| Aircraft | A320/M-SDE3FGHIRWY/LB1 |
Departure
| Time | 2026-04-29 07:43 |
|---|---|
| Airport | Nuremberg Airport (EDDN) |
Arrival
| Time | 2026-04-29 10:34 |
|---|---|
| Airport | Lisbon Humberto Delgado Airport (LPPT) |
| Time | Latitude | Longitude | Altitude | Speed | Heading |
|---|---|---|---|---|---|
| 2026-04-29 07:06 | 49.49548 | 11.07455 | 1026 ft | 0 kts | 188° |
| 2026-04-29 07:31 | 49.49581 | 11.07462 | 1025 ft | 3 kts | 188° |
| 2026-04-29 07:31 | 49.49603 | 11.07475 | 1025 ft | 4 kts | 232° |
| 2026-04-29 07:31 | 49.49611 | 11.07510 | 1025 ft | 3 kts | 276° |
| 2026-04-29 07:31 | 49.49610 | 11.07517 | 1025 ft | 0 kts | 278° |
| 2026-04-29 07:37 | 49.49612 | 11.07499 | 1024 ft | 5 kts | 278° |
| 2026-04-29 07:37 | 49.49616 | 11.07453 | 1022 ft | 5 kts | 278° |
| 2026-04-29 07:37 | 49.49622 | 11.07395 | 1025 ft | 5 kts | 279° |
| 2026-04-29 07:37 | 49.49628 | 11.07342 | 1025 ft | 8 kts | 279° |
| 2026-04-29 07:38 | 49.49636 | 11.07263 | 1025 ft | 7 kts | 279° |
| 2026-04-29 07:38 | 49.49672 | 11.07230 | 1024 ft | 7 kts | 1° |
| 2026-04-29 07:38 | 49.49720 | 11.07220 | 1022 ft | 9 kts | 328° |
| 2026-04-29 07:38 | 49.49747 | 11.07096 | 1021 ft | 15 kts | 278° |
| 2026-04-29 07:39 | 49.49764 | 11.06926 | 1020 ft | 17 kts | 278° |
| 2026-04-29 07:39 | 49.49783 | 11.06734 | 1020 ft | 19 kts | 278° |
| 2026-04-29 07:39 | 49.49803 | 11.06532 | 1020 ft | 20 kts | 278° |
| 2026-04-29 07:39 | 49.49824 | 11.06318 | 1018 ft | 21 kts | 278° |
| 2026-04-29 07:40 | 49.49840 | 11.06159 | 1019 ft | 11 kts | 278° |
| 2026-04-29 07:40 | 49.49849 | 11.06058 | 1021 ft | 8 kts | 278° |
| 2026-04-29 07:40 | 49.49868 | 11.05995 | 1021 ft | 5 kts | 316° |
| 2026-04-29 07:40 | 49.49890 | 11.05977 | 1022 ft | 4 kts | 333° |
| 2026-04-29 07:41 | 49.49922 | 11.05956 | 1023 ft | 4 kts | 338° |
| 2026-04-29 07:41 | 49.49955 | 11.05937 | 1023 ft | 8 kts | 340° |
| 2026-04-29 07:41 | 49.50026 | 11.05942 | 1028 ft | 9 kts | 19° |
| 2026-04-29 07:41 | 49.50047 | 11.06008 | 1028 ft | 7 kts | 93° |
| 2026-04-29 07:42 | 49.50045 | 11.06023 | 1028 ft | 0 kts | 99° |
| 2026-04-29 07:42 | 49.50044 | 11.06037 | 1026 ft | 7 kts | 99° |
| 2026-04-29 07:42 | 49.49996 | 11.06483 | 1024 ft | 80 kts | 99° |
| 2026-04-29 07:42 | 49.49880 | 11.07672 | 1027 ft | 139 kts | 98° |
| 2026-04-29 07:43 | 49.49718 | 11.09321 | 1272 ft | 165 kts | 98° |
| 2026-04-29 07:43 | 49.49547 | 11.11112 | 1895 ft | 173 kts | 98° |
| 2026-04-29 07:43 | 49.49375 | 11.12963 | 2451 ft | 183 kts | 98° |
| 2026-04-29 07:43 | 49.49191 | 11.15016 | 2753 ft | 204 kts | 98° |
| 2026-04-29 07:44 | 49.48978 | 11.17241 | 3130 ft | 225 kts | 97° |
| 2026-04-29 07:44 | 49.48729 | 11.19693 | 3643 ft | 237 kts | 98° |
| 2026-04-29 07:44 | 49.48448 | 11.22219 | 4574 ft | 243 kts | 104° |
| 2026-04-29 07:44 | 49.47566 | 11.24470 | 5387 ft | 257 kts | 137° |
| 2026-04-29 07:45 | 49.45924 | 11.25590 | 6149 ft | 272 kts | 168° |
| 2026-04-29 07:45 | 49.44001 | 11.25677 | 6928 ft | 281 kts | 184° |
| 2026-04-29 07:45 | 49.42047 | 11.25308 | 7766 ft | 286 kts | 188° |
| 2026-04-29 07:45 | 49.40055 | 11.24813 | 8512 ft | 294 kts | 188° |
| 2026-04-29 07:46 | 49.38011 | 11.24337 | 9228 ft | 301 kts | 187° |
| 2026-04-29 07:46 | 49.35931 | 11.23931 | 10072 ft | 302 kts | 186° |
| 2026-04-29 07:46 | 49.33861 | 11.23250 | 10771 ft | 308 kts | 202° |
| 2026-04-29 07:46 | 49.32024 | 11.21589 | 11553 ft | 307 kts | 222° |
| 2026-04-29 07:47 | 49.30619 | 11.19122 | 11943 ft | 321 kts | 243° |
| 2026-04-29 07:47 | 49.29803 | 11.15855 | 12136 ft | 339 kts | 259° |
| 2026-04-29 07:47 | 49.29231 | 11.12275 | 12583 ft | 351 kts | 258° |
| 2026-04-29 07:47 | 49.28647 | 11.08619 | 13277 ft | 355 kts | 258° |
| 2026-04-29 07:48 | 49.28049 | 11.04936 | 14002 ft | 357 kts | 258° |
| 2026-04-29 07:48 | 49.27441 | 11.01236 | 14634 ft | 360 kts | 257° |
| 2026-04-29 07:48 | 49.26819 | 10.97504 | 15301 ft | 362 kts | 258° |
| 2026-04-29 07:48 | 49.26191 | 10.93760 | 15968 ft | 365 kts | 258° |
| 2026-04-29 07:49 | 49.25557 | 10.89990 | 16614 ft | 367 kts | 258° |
| 2026-04-29 07:49 | 49.24929 | 10.86245 | 17240 ft | 369 kts | 258° |
| 2026-04-29 07:49 | 49.24290 | 10.82429 | 17875 ft | 372 kts | 258° |
| 2026-04-29 07:49 | 49.23645 | 10.78592 | 18494 ft | 374 kts | 258° |
| 2026-04-29 07:50 | 49.22992 | 10.74720 | 19036 ft | 376 kts | 258° |
| 2026-04-29 07:50 | 49.22337 | 10.70836 | 19590 ft | 378 kts | 258° |
| 2026-04-29 07:50 | 49.21680 | 10.66939 | 20099 ft | 379 kts | 258° |
| 2026-04-29 07:50 | 49.21019 | 10.63028 | 20626 ft | 381 kts | 258° |
| 2026-04-29 07:51 | 49.20352 | 10.59098 | 21165 ft | 382 kts | 258° |
| 2026-04-29 07:51 | 49.19691 | 10.55209 | 21695 ft | 384 kts | 257° |
| 2026-04-29 07:51 | 49.19016 | 10.51255 | 22216 ft | 385 kts | 257° |
| 2026-04-29 07:51 | 49.18337 | 10.47291 | 22743 ft | 387 kts | 257° |
| 2026-04-29 07:52 | 49.17652 | 10.43310 | 23242 ft | 388 kts | 257° |
| 2026-04-29 07:52 | 49.16961 | 10.39315 | 23739 ft | 390 kts | 257° |
| 2026-04-29 07:52 | 49.16265 | 10.35307 | 24160 ft | 391 kts | 257° |
| 2026-04-29 07:52 | 49.15568 | 10.31291 | 24571 ft | 392 kts | 257° |
| 2026-04-29 07:53 | 49.14837 | 10.27265 | 24966 ft | 395 kts | 253° |
| 2026-04-29 07:53 | 49.13759 | 10.23456 | 25341 ft | 399 kts | 244° |
| 2026-04-29 07:53 | 49.12218 | 10.19897 | 25713 ft | 405 kts | 235° |
| 2026-04-29 07:53 | 49.10447 | 10.16534 | 26068 ft | 407 kts | 235° |
| 2026-04-29 07:54 | 49.08662 | 10.13160 | 26427 ft | 409 kts | 235° |
| 2026-04-29 07:54 | 49.06873 | 10.09786 | 26820 ft | 409 kts | 235° |
| 2026-04-29 07:54 | 49.05084 | 10.06412 | 27255 ft | 409 kts | 236° |
| 2026-04-29 07:54 | 49.03281 | 10.03012 | 27653 ft | 410 kts | 236° |
| 2026-04-29 07:55 | 49.01502 | 9.99654 | 28009 ft | 411 kts | 236° |
| 2026-04-29 07:55 | 48.99703 | 9.96257 | 28366 ft | 413 kts | 236° |
| 2026-04-29 07:55 | 48.97921 | 9.92900 | 28711 ft | 414 kts | 236° |
| 2026-04-29 07:55 | 48.96106 | 9.89488 | 29025 ft | 416 kts | 236° |
| 2026-04-29 07:56 | 48.94280 | 9.86062 | 29357 ft | 418 kts | 236° |
| 2026-04-29 07:56 | 48.92443 | 9.82628 | 29664 ft | 419 kts | 236° |
| 2026-04-29 07:56 | 48.90600 | 9.79188 | 29966 ft | 421 kts | 236° |
| 2026-04-29 07:56 | 48.88749 | 9.75731 | 30229 ft | 422 kts | 236° |
| 2026-04-29 07:57 | 48.86890 | 9.72263 | 30445 ft | 425 kts | 236° |
| 2026-04-29 07:57 | 48.85047 | 9.68827 | 30659 ft | 427 kts | 236° |
| 2026-04-29 07:57 | 48.83169 | 9.65327 | 30892 ft | 428 kts | 236° |
| 2026-04-29 07:57 | 48.81290 | 9.61824 | 31200 ft | 427 kts | 236° |
| 2026-04-29 07:58 | 48.79414 | 9.58332 | 31521 ft | 427 kts | 236° |
| 2026-04-29 07:58 | 48.77535 | 9.54844 | 31825 ft | 427 kts | 236° |
| 2026-04-29 07:58 | 48.75654 | 9.51365 | 32128 ft | 427 kts | 236° |
| 2026-04-29 07:58 | 48.73772 | 9.47894 | 32424 ft | 427 kts | 236° |
| 2026-04-29 07:59 | 48.71886 | 9.44420 | 32735 ft | 427 kts | 236° |
| 2026-04-29 07:59 | 48.70002 | 9.40949 | 33034 ft | 426 kts | 236° |
| 2026-04-29 07:59 | 48.68148 | 9.37528 | 33335 ft | 425 kts | 236° |
| 2026-04-29 07:59 | 48.66276 | 9.34082 | 33721 ft | 423 kts | 236° |
| 2026-04-29 08:00 | 48.64406 | 9.30647 | 34057 ft | 422 kts | 236° |
| 2026-04-29 08:00 | 48.62540 | 9.27219 | 34348 ft | 422 kts | 236° |
| 2026-04-29 08:00 | 48.60711 | 9.23763 | 34594 ft | 421 kts | 238° |
| 2026-04-29 08:00 | 48.58969 | 9.20208 | 34809 ft | 421 kts | 239° |
| 2026-04-29 08:01 | 48.57289 | 9.16597 | 35023 ft | 421 kts | 240° |
| 2026-04-29 08:01 | 48.55631 | 9.12954 | 35224 ft | 421 kts | 240° |
| 2026-04-29 08:01 | 48.53992 | 9.09350 | 35410 ft | 422 kts | 240° |
| 2026-04-29 08:01 | 48.52318 | 9.05712 | 35615 ft | 423 kts | 239° |
| 2026-04-29 08:02 | 48.50624 | 9.02082 | 35803 ft | 423 kts | 239° |
| 2026-04-29 08:02 | 48.48911 | 8.98461 | 35998 ft | 424 kts | 238° |
| 2026-04-29 08:02 | 48.47186 | 8.94843 | 36169 ft | 425 kts | 238° |
| 2026-04-29 08:02 | 48.45455 | 8.91231 | 36361 ft | 426 kts | 238° |
| 2026-04-29 08:03 | 48.43719 | 8.87611 | 36544 ft | 426 kts | 238° |
| 2026-04-29 08:03 | 48.41983 | 8.83992 | 36721 ft | 427 kts | 238° |
| 2026-04-29 08:03 | 48.40268 | 8.80411 | 36886 ft | 428 kts | 238° |
| 2026-04-29 08:03 | 48.38531 | 8.76775 | 37068 ft | 428 kts | 238° |
| 2026-04-29 08:04 | 48.35048 | 8.69494 | 37166 ft | 429 kts | 238° |
| 2026-04-29 08:04 | 48.31561 | 8.62227 | 37154 ft | 427 kts | 238° |
| 2026-04-29 08:05 | 48.28085 | 8.55018 | 37152 ft | 425 kts | 237° |
| 2026-04-29 08:05 | 48.24632 | 8.47890 | 37143 ft | 425 kts | 237° |
| 2026-04-29 08:06 | 48.21158 | 8.40710 | 37150 ft | 425 kts | 237° |
| 2026-04-29 08:06 | 48.17579 | 8.33652 | 37152 ft | 428 kts | 230° |
| 2026-04-29 08:07 | 48.12867 | 8.28111 | 37126 ft | 435 kts | 217° |
| 2026-04-29 08:07 | 48.07812 | 8.23245 | 37133 ft | 435 kts | 217° |
| 2026-04-29 08:08 | 48.02720 | 8.18356 | 37138 ft | 435 kts | 217° |
| 2026-04-29 08:08 | 47.97633 | 8.13469 | 37125 ft | 435 kts | 217° |
| 2026-04-29 08:09 | 47.92547 | 8.08588 | 37102 ft | 435 kts | 216° |
| 2026-04-29 08:09 | 47.87453 | 8.03723 | 37107 ft | 435 kts | 216° |
| 2026-04-29 08:10 | 47.82386 | 7.98894 | 37124 ft | 436 kts | 216° |
| 2026-04-29 08:10 | 47.77279 | 7.94031 | 37127 ft | 436 kts | 216° |
| 2026-04-29 08:11 | 47.72177 | 7.89175 | 37127 ft | 436 kts | 216° |
| 2026-04-29 08:11 | 47.67098 | 7.84365 | 37143 ft | 436 kts | 216° |
| 2026-04-29 08:12 | 47.61984 | 7.79533 | 37152 ft | 436 kts | 216° |
| 2026-04-29 08:12 | 47.56864 | 7.74708 | 37159 ft | 436 kts | 216° |
| 2026-04-29 08:13 | 47.51743 | 7.69898 | 37154 ft | 436 kts | 216° |
| 2026-04-29 08:13 | 47.46662 | 7.65139 | 37164 ft | 435 kts | 216° |
| 2026-04-29 08:14 | 47.41549 | 7.60358 | 37162 ft | 435 kts | 216° |
| 2026-04-29 08:14 | 47.36445 | 7.55591 | 37158 ft | 434 kts | 216° |
| 2026-04-29 08:15 | 47.31348 | 7.50834 | 37137 ft | 433 kts | 216° |
| 2026-04-29 08:15 | 47.26260 | 7.46092 | 37112 ft | 432 kts | 216° |
| 2026-04-29 08:16 | 47.21208 | 7.41412 | 37125 ft | 431 kts | 216° |
| 2026-04-29 08:16 | 47.16346 | 7.36340 | 37123 ft | 425 kts | 227° |
| 2026-04-29 08:17 | 47.12553 | 7.29779 | 37116 ft | 421 kts | 234° |
| 2026-04-29 08:17 | 47.08915 | 7.23048 | 37120 ft | 420 kts | 234° |
| 2026-04-29 08:18 | 47.05288 | 7.16394 | 37123 ft | 420 kts | 234° |
| 2026-04-29 08:18 | 47.01631 | 7.09706 | 37123 ft | 420 kts | 234° |
| 2026-04-29 08:19 | 46.97980 | 7.03024 | 37120 ft | 420 kts | 234° |
| 2026-04-29 08:19 | 46.94328 | 6.96355 | 37116 ft | 420 kts | 234° |
| 2026-04-29 08:20 | 46.90694 | 6.89753 | 37124 ft | 419 kts | 234° |
| 2026-04-29 08:20 | 46.87034 | 6.83123 | 37126 ft | 419 kts | 233° |
| 2026-04-29 08:21 | 46.83374 | 6.76506 | 37124 ft | 418 kts | 233° |
| 2026-04-29 08:21 | 46.79737 | 6.69947 | 37121 ft | 418 kts | 233° |
| 2026-04-29 08:22 | 46.76071 | 6.63360 | 37107 ft | 418 kts | 233° |
| 2026-04-29 08:22 | 46.72406 | 6.56786 | 37109 ft | 418 kts | 233° |
| 2026-04-29 08:23 | 46.68742 | 6.50221 | 37100 ft | 417 kts | 233° |
| 2026-04-29 08:23 | 46.65075 | 6.43670 | 37095 ft | 417 kts | 233° |
| 2026-04-29 08:24 | 46.61430 | 6.37171 | 37091 ft | 417 kts | 233° |
| 2026-04-29 08:24 | 46.57757 | 6.30644 | 37091 ft | 417 kts | 233° |
| 2026-04-29 08:25 | 46.54074 | 6.24123 | 37084 ft | 417 kts | 233° |
| 2026-04-29 08:25 | 46.50389 | 6.17605 | 37084 ft | 417 kts | 233° |
| 2026-04-29 08:26 | 46.46705 | 6.11101 | 37086 ft | 417 kts | 233° |
| 2026-04-29 08:26 | 46.43034 | 6.04657 | 37083 ft | 417 kts | 233° |
| 2026-04-29 08:27 | 46.39339 | 5.98165 | 37112 ft | 417 kts | 232° |
| 2026-04-29 08:27 | 46.35647 | 5.91687 | 37109 ft | 417 kts | 232° |
| 2026-04-29 08:28 | 46.31950 | 5.85219 | 37098 ft | 417 kts | 232° |
| 2026-04-29 08:28 | 46.28249 | 5.78766 | 37099 ft | 416 kts | 232° |
| 2026-04-29 08:29 | 46.24632 | 5.72418 | 37049 ft | 410 kts | 232° |
| 2026-04-29 08:29 | 46.20970 | 5.66049 | 37040 ft | 413 kts | 232° |
| 2026-04-29 08:30 | 46.15427 | 5.56484 | 37035 ft | 415 kts | 232° |
| 2026-04-29 08:31 | 46.12097 | 5.49788 | 37038 ft | 414 kts | 237° |
| 2026-04-29 08:31 | 46.08833 | 5.42959 | 37050 ft | 414 kts | 237° |
| 2026-04-29 08:32 | 46.05560 | 5.36141 | 37057 ft | 414 kts | 237° |
| 2026-04-29 08:32 | 46.02276 | 5.29337 | 37048 ft | 414 kts | 236° |
| 2026-04-29 08:33 | 45.99014 | 5.22586 | 37060 ft | 414 kts | 237° |
| 2026-04-29 08:33 | 45.95730 | 5.15804 | 37061 ft | 413 kts | 236° |
| 2026-04-29 08:34 | 45.92439 | 5.09024 | 37063 ft | 413 kts | 236° |
| 2026-04-29 08:34 | 45.89151 | 5.02257 | 37072 ft | 413 kts | 236° |
| 2026-04-29 08:35 | 45.85884 | 4.95539 | 37065 ft | 413 kts | 236° |
| 2026-04-29 08:35 | 45.82579 | 4.88787 | 37071 ft | 414 kts | 236° |
| 2026-04-29 08:36 | 45.79269 | 4.82043 | 37075 ft | 414 kts | 236° |
| 2026-04-29 08:36 | 45.75956 | 4.75298 | 37069 ft | 414 kts | 236° |
| 2026-04-29 08:37 | 45.72636 | 4.68561 | 37049 ft | 414 kts | 235° |
| 2026-04-29 08:37 | 45.69334 | 4.61878 | 37051 ft | 414 kts | 235° |
| 2026-04-29 08:38 | 45.65980 | 4.55109 | 37067 ft | 419 kts | 235° |
| 2026-04-29 08:38 | 45.62608 | 4.48330 | 37077 ft | 418 kts | 235° |
| 2026-04-29 08:39 | 45.59246 | 4.41581 | 37082 ft | 416 kts | 235° |
| 2026-04-29 08:39 | 45.55919 | 4.34886 | 37079 ft | 416 kts | 235° |
| 2026-04-29 08:40 | 45.52564 | 4.28172 | 37086 ft | 415 kts | 235° |
| 2026-04-29 08:40 | 45.49215 | 4.21476 | 37076 ft | 415 kts | 235° |
| 2026-04-29 08:41 | 45.45860 | 4.14781 | 37072 ft | 415 kts | 235° |
| 2026-04-29 08:41 | 45.42520 | 4.08153 | 37069 ft | 415 kts | 234° |
| 2026-04-29 08:42 | 45.39156 | 4.01491 | 37062 ft | 415 kts | 234° |
| 2026-04-29 08:42 | 45.35785 | 3.94832 | 37059 ft | 415 kts | 234° |
| 2026-04-29 08:43 | 45.32417 | 3.88185 | 37058 ft | 415 kts | 234° |
| 2026-04-29 08:43 | 45.29065 | 3.81580 | 37050 ft | 415 kts | 234° |
| 2026-04-29 08:44 | 45.25678 | 3.74935 | 37037 ft | 416 kts | 234° |
| 2026-04-29 08:44 | 45.22337 | 3.68241 | 37040 ft | 416 kts | 235° |
| 2026-04-29 08:45 | 45.19043 | 3.61493 | 37041 ft | 416 kts | 235° |
| 2026-04-29 08:45 | 45.15765 | 3.54800 | 37041 ft | 416 kts | 235° |
| 2026-04-29 08:46 | 45.12443 | 3.48078 | 37030 ft | 417 kts | 235° |
| 2026-04-29 08:46 | 45.09112 | 3.41367 | 37028 ft | 417 kts | 235° |
| 2026-04-29 08:47 | 45.05767 | 3.34652 | 37027 ft | 418 kts | 235° |
| 2026-04-29 08:47 | 45.02419 | 3.27942 | 37025 ft | 418 kts | 235° |
| 2026-04-29 08:48 | 44.99086 | 3.21278 | 37028 ft | 418 kts | 235° |
| 2026-04-29 08:48 | 44.95729 | 3.14572 | 37025 ft | 418 kts | 235° |
| 2026-04-29 08:49 | 44.92367 | 3.07872 | 37015 ft | 418 kts | 235° |
| 2026-04-29 08:49 | 44.89000 | 3.01173 | 37014 ft | 419 kts | 235° |
| 2026-04-29 08:50 | 44.85644 | 2.94520 | 37014 ft | 419 kts | 234° |
| 2026-04-29 08:50 | 44.82339 | 2.87751 | 37007 ft | 419 kts | 237° |
| 2026-04-29 08:51 | 44.79199 | 2.80827 | 37008 ft | 419 kts | 238° |
| 2026-04-29 08:51 | 44.76073 | 2.73894 | 37005 ft | 420 kts | 237° |
| 2026-04-29 08:52 | 44.72902 | 2.67007 | 37020 ft | 420 kts | 237° |
| 2026-04-29 08:52 | 44.69727 | 2.60184 | 37014 ft | 420 kts | 237° |
| 2026-04-29 08:53 | 44.66531 | 2.53318 | 37007 ft | 420 kts | 236° |
| 2026-04-29 08:53 | 44.63333 | 2.46452 | 37005 ft | 420 kts | 236° |
| 2026-04-29 08:54 | 44.60132 | 2.39597 | 37004 ft | 420 kts | 236° |
| 2026-04-29 08:54 | 44.56923 | 2.32750 | 36988 ft | 420 kts | 236° |
| 2026-04-29 08:55 | 44.53730 | 2.25948 | 37000 ft | 420 kts | 236° |
| 2026-04-29 08:55 | 44.50514 | 2.19114 | 36996 ft | 420 kts | 236° |
| 2026-04-29 08:56 | 44.47289 | 2.12287 | 36985 ft | 420 kts | 236° |
| 2026-04-29 08:56 | 44.44063 | 2.05461 | 36975 ft | 420 kts | 236° |
| 2026-04-29 08:57 | 44.40856 | 1.98687 | 36966 ft | 420 kts | 236° |
| 2026-04-29 08:57 | 44.37621 | 1.91878 | 36962 ft | 420 kts | 236° |
| 2026-04-29 08:58 | 44.34391 | 1.85085 | 36968 ft | 420 kts | 236° |
| 2026-04-29 08:58 | 44.31154 | 1.78305 | 36965 ft | 419 kts | 236° |
| 2026-04-29 08:59 | 44.27955 | 1.71564 | 36958 ft | 419 kts | 236° |
| 2026-04-29 08:59 | 44.24816 | 1.64709 | 36953 ft | 419 kts | 237° |
| 2026-04-29 09:00 | 44.21688 | 1.57839 | 36952 ft | 419 kts | 237° |
| 2026-04-29 09:00 | 44.18544 | 1.50999 | 36955 ft | 419 kts | 236° |
| 2026-04-29 09:01 | 44.15393 | 1.44178 | 36952 ft | 419 kts | 236° |
| 2026-04-29 09:01 | 44.12258 | 1.37415 | 36940 ft | 418 kts | 236° |
| 2026-04-29 09:02 | 44.09100 | 1.30619 | 36938 ft | 418 kts | 236° |
| 2026-04-29 09:02 | 44.05937 | 1.23834 | 36936 ft | 418 kts | 236° |
| 2026-04-29 09:03 | 44.02771 | 1.17057 | 36930 ft | 418 kts | 236° |
| 2026-04-29 09:03 | 43.99631 | 1.10325 | 36935 ft | 418 kts | 236° |
| 2026-04-29 09:04 | 43.96470 | 1.03556 | 36924 ft | 418 kts | 236° |
| 2026-04-29 09:04 | 43.93302 | 0.96804 | 36923 ft | 418 kts | 236° |
| 2026-04-29 09:05 | 43.90119 | 0.90063 | 36919 ft | 417 kts | 236° |
| 2026-04-29 09:05 | 43.87003 | 0.83338 | 36918 ft | 418 kts | 237° |
| 2026-04-29 09:06 | 43.84042 | 0.76411 | 36921 ft | 418 kts | 238° |
| 2026-04-29 09:06 | 43.81122 | 0.69459 | 36927 ft | 417 kts | 238° |
| 2026-04-29 09:07 | 43.78171 | 0.62557 | 36924 ft | 416 kts | 238° |
| 2026-04-29 09:07 | 43.75208 | 0.55735 | 36921 ft | 416 kts | 237° |
| 2026-04-29 09:08 | 43.72219 | 0.48875 | 36921 ft | 416 kts | 237° |
| 2026-04-29 09:08 | 43.69238 | 0.42015 | 36916 ft | 416 kts | 237° |
| 2026-04-29 09:09 | 43.66254 | 0.35161 | 36927 ft | 416 kts | 237° |
| 2026-04-29 09:09 | 43.63284 | 0.28361 | 36927 ft | 416 kts | 237° |
| 2026-04-29 09:10 | 43.60288 | 0.21526 | 36907 ft | 416 kts | 237° |
| 2026-04-29 09:10 | 43.57286 | 0.14694 | 36908 ft | 417 kts | 237° |
| 2026-04-29 09:11 | 43.54280 | 0.07864 | 36903 ft | 417 kts | 237° |
| 2026-04-29 09:11 | 43.51266 | 0.01041 | 36902 ft | 417 kts | 237° |
| 2026-04-29 09:12 | 43.48271 | -0.05732 | 36909 ft | 417 kts | 236° |
| 2026-04-29 09:12 | 43.45248 | -0.12547 | 36894 ft | 417 kts | 236° |
| 2026-04-29 09:13 | 43.42228 | -0.19364 | 36877 ft | 417 kts | 237° |
| 2026-04-29 09:13 | 43.39194 | -0.26188 | 36871 ft | 419 kts | 237° |
| 2026-04-29 09:14 | 43.36165 | -0.32964 | 36871 ft | 419 kts | 236° |
| 2026-04-29 09:14 | 43.33108 | -0.39789 | 36873 ft | 420 kts | 236° |
| 2026-04-29 09:15 | 43.30046 | -0.46618 | 36877 ft | 420 kts | 236° |
| 2026-04-29 09:15 | 43.26981 | -0.53442 | 36878 ft | 420 kts | 236° |
| 2026-04-29 09:16 | 43.23933 | -0.60213 | 36881 ft | 420 kts | 236° |
| 2026-04-29 09:16 | 43.20856 | -0.67027 | 36875 ft | 420 kts | 236° |
| 2026-04-29 09:17 | 43.17769 | -0.73825 | 36879 ft | 420 kts | 236° |
| 2026-04-29 09:17 | 43.14684 | -0.80618 | 36912 ft | 420 kts | 236° |
| 2026-04-29 09:18 | 43.11607 | -0.87399 | 36901 ft | 419 kts | 236° |
| 2026-04-29 09:18 | 43.08548 | -0.94107 | 36904 ft | 418 kts | 236° |
| 2026-04-29 09:19 | 43.05469 | -1.00846 | 36901 ft | 418 kts | 236° |
| 2026-04-29 09:19 | 43.02391 | -1.07576 | 36897 ft | 418 kts | 236° |
| 2026-04-29 09:20 | 42.99306 | -1.14306 | 36894 ft | 418 kts | 236° |
| 2026-04-29 09:20 | 42.96239 | -1.20973 | 36910 ft | 417 kts | 235° |
| 2026-04-29 09:21 | 42.93147 | -1.27679 | 36908 ft | 417 kts | 235° |
| 2026-04-29 09:21 | 42.90045 | -1.34370 | 36906 ft | 417 kts | 235° |
| 2026-04-29 09:22 | 42.86942 | -1.41055 | 36913 ft | 417 kts | 235° |
| 2026-04-29 09:22 | 42.83864 | -1.47694 | 36919 ft | 417 kts | 235° |
| 2026-04-29 09:23 | 42.80762 | -1.54373 | 36935 ft | 417 kts | 235° |
| 2026-04-29 09:23 | 42.77652 | -1.61051 | 36927 ft | 418 kts | 235° |
| 2026-04-29 09:24 | 42.74537 | -1.67728 | 36922 ft | 418 kts | 236° |
| 2026-04-29 09:24 | 42.72279 | -1.75051 | 36921 ft | 424 kts | 250° |
| 2026-04-29 09:25 | 42.70575 | -1.82677 | 36922 ft | 424 kts | 250° |
| 2026-04-29 09:25 | 42.68847 | -1.90349 | 36926 ft | 424 kts | 249° |
| 2026-04-29 09:26 | 42.67110 | -1.98020 | 36934 ft | 425 kts | 249° |
| 2026-04-29 09:26 | 42.65361 | -2.05691 | 36921 ft | 425 kts | 249° |
| 2026-04-29 09:27 | 42.63605 | -2.13353 | 36910 ft | 425 kts | 249° |
| 2026-04-29 09:27 | 42.61840 | -2.20956 | 36902 ft | 425 kts | 249° |
| 2026-04-29 09:28 | 42.59986 | -2.28567 | 36899 ft | 425 kts | 248° |
| 2026-04-29 09:28 | 42.58104 | -2.36171 | 36898 ft | 425 kts | 248° |
| 2026-04-29 09:29 | 42.56241 | -2.43786 | 36900 ft | 425 kts | 249° |
| 2026-04-29 09:29 | 42.53465 | -2.55164 | 36898 ft | 426 kts | 249° |
| 2026-04-29 09:30 | 42.51599 | -2.62781 | 36897 ft | 426 kts | 248° |
| 2026-04-29 09:30 | 42.49716 | -2.70385 | 36917 ft | 426 kts | 248° |
| 2026-04-29 09:31 | 42.47828 | -2.77977 | 36905 ft | 425 kts | 248° |
| 2026-04-29 09:31 | 42.45941 | -2.85568 | 36902 ft | 425 kts | 248° |
| 2026-04-29 09:32 | 42.43701 | -2.92875 | 36905 ft | 422 kts | 242° |
| 2026-04-29 09:32 | 42.41243 | -3.00099 | 36899 ft | 422 kts | 242° |
| 2026-04-29 09:33 | 42.38779 | -3.07318 | 36914 ft | 422 kts | 242° |
| 2026-04-29 09:33 | 42.36320 | -3.14523 | 36903 ft | 422 kts | 242° |
| 2026-04-29 09:34 | 42.33877 | -3.21665 | 36902 ft | 421 kts | 242° |
| 2026-04-29 09:34 | 42.31405 | -3.28840 | 36898 ft | 421 kts | 242° |
| 2026-04-29 09:35 | 42.28940 | -3.35999 | 36894 ft | 420 kts | 242° |
| 2026-04-29 09:35 | 42.26471 | -3.43150 | 36896 ft | 420 kts | 242° |
| 2026-04-29 09:36 | 42.23994 | -3.50295 | 36910 ft | 420 kts | 241° |
| 2026-04-29 09:36 | 42.21531 | -3.57386 | 36901 ft | 420 kts | 242° |
| 2026-04-29 09:37 | 42.19050 | -3.64531 | 36899 ft | 421 kts | 241° |
| 2026-04-29 09:37 | 42.16567 | -3.71664 | 36874 ft | 420 kts | 241° |
| 2026-04-29 09:38 | 42.14079 | -3.78791 | 36869 ft | 420 kts | 241° |
| 2026-04-29 09:38 | 42.11580 | -3.85912 | 36875 ft | 421 kts | 241° |
| 2026-04-29 09:39 | 42.09069 | -3.93036 | 36868 ft | 421 kts | 241° |
| 2026-04-29 09:39 | 42.06574 | -4.00113 | 36864 ft | 421 kts | 241° |
| 2026-04-29 09:40 | 42.04056 | -4.07239 | 36863 ft | 422 kts | 241° |
| 2026-04-29 09:40 | 42.01504 | -4.14343 | 36865 ft | 421 kts | 240° |
| 2026-04-29 09:41 | 41.98844 | -4.21358 | 36867 ft | 421 kts | 239° |
| 2026-04-29 09:41 | 41.96163 | -4.28297 | 36866 ft | 421 kts | 239° |
| 2026-04-29 09:42 | 41.93480 | -4.35287 | 36865 ft | 421 kts | 239° |
| 2026-04-29 09:42 | 41.90806 | -4.42290 | 36865 ft | 421 kts | 239° |
| 2026-04-29 09:43 | 41.88134 | -4.49283 | 36858 ft | 421 kts | 239° |
| 2026-04-29 09:43 | 41.85452 | -4.56276 | 36861 ft | 422 kts | 239° |
| 2026-04-29 09:44 | 41.82779 | -4.63221 | 36868 ft | 422 kts | 239° |
| 2026-04-29 09:44 | 41.80077 | -4.70204 | 36891 ft | 422 kts | 239° |
| 2026-04-29 09:45 | 41.77378 | -4.77192 | 36900 ft | 422 kts | 239° |
| 2026-04-29 09:45 | 41.75128 | -4.82999 | 36898 ft | 422 kts | 239° |
| 2026-04-29 09:46 | 41.71974 | -4.91108 | 36898 ft | 423 kts | 239° |
| 2026-04-29 09:46 | 41.69255 | -4.98077 | 36917 ft | 423 kts | 239° |
| 2026-04-29 09:47 | 41.66993 | -5.03869 | 36894 ft | 423 kts | 239° |
| 2026-04-29 09:47 | 41.64267 | -5.10843 | 36877 ft | 423 kts | 239° |
| 2026-04-29 09:48 | 41.61533 | -5.17802 | 36876 ft | 423 kts | 239° |
| 2026-04-29 09:48 | 41.58351 | -5.25889 | 36864 ft | 423 kts | 239° |
| 2026-04-29 09:49 | 41.56072 | -5.31669 | 36854 ft | 423 kts | 239° |
| 2026-04-29 09:49 | 41.53323 | -5.38619 | 36862 ft | 423 kts | 239° |
| 2026-04-29 09:50 | 41.50577 | -5.45559 | 36856 ft | 423 kts | 239° |
| 2026-04-29 09:50 | 41.47826 | -5.52496 | 36856 ft | 423 kts | 239° |
| 2026-04-29 09:51 | 41.44821 | -5.59205 | 36847 ft | 421 kts | 234° |
| 2026-04-29 09:51 | 41.41537 | -5.65655 | 36842 ft | 421 kts | 233° |
| 2026-04-29 09:52 | 41.38242 | -5.72035 | 36866 ft | 421 kts | 233° |
| 2026-04-29 09:52 | 41.34925 | -5.78458 | 36847 ft | 421 kts | 233° |
| 2026-04-29 09:53 | 41.31614 | -5.84899 | 36847 ft | 422 kts | 233° |
| 2026-04-29 09:53 | 41.28296 | -5.91340 | 36840 ft | 422 kts | 233° |
| 2026-04-29 09:54 | 41.24972 | -5.97783 | 36843 ft | 423 kts | 233° |
| 2026-04-29 09:54 | 41.21643 | -6.04224 | 36844 ft | 423 kts | 233° |
| 2026-04-29 09:55 | 41.18332 | -6.10611 | 36844 ft | 423 kts | 233° |
| 2026-04-29 09:55 | 41.14992 | -6.17042 | 36838 ft | 423 kts | 234° |
| 2026-04-29 09:56 | 41.11646 | -6.23476 | 36840 ft | 424 kts | 233° |
| 2026-04-29 09:56 | 41.08290 | -6.29902 | 36838 ft | 424 kts | 233° |
| 2026-04-29 09:57 | 41.04953 | -6.36284 | 36840 ft | 424 kts | 233° |
| 2026-04-29 09:57 | 41.01584 | -6.42707 | 36835 ft | 424 kts | 233° |
| 2026-04-29 09:58 | 40.98213 | -6.49119 | 36852 ft | 424 kts | 233° |
| 2026-04-29 09:58 | 40.94841 | -6.55517 | 36853 ft | 424 kts | 233° |
| 2026-04-29 09:59 | 40.91471 | -6.61901 | 36850 ft | 423 kts | 234° |
| 2026-04-29 09:59 | 40.88135 | -6.68227 | 36849 ft | 422 kts | 234° |
| 2026-04-29 10:00 | 40.84772 | -6.74578 | 36855 ft | 422 kts | 234° |
| 2026-04-29 10:00 | 40.81406 | -6.80914 | 36859 ft | 421 kts | 234° |
| 2026-04-29 10:01 | 40.78042 | -6.87235 | 36864 ft | 421 kts | 234° |
| 2026-04-29 10:01 | 40.74675 | -6.93562 | 36857 ft | 422 kts | 234° |
| 2026-04-29 10:02 | 40.71306 | -6.99888 | 36857 ft | 422 kts | 234° |
| 2026-04-29 10:02 | 40.67363 | -7.05500 | 36851 ft | 421 kts | 224° |
| 2026-04-29 10:03 | 40.63152 | -7.10856 | 36855 ft | 421 kts | 224° |
| 2026-04-29 10:03 | 40.58934 | -7.16200 | 36856 ft | 421 kts | 224° |
| 2026-04-29 10:04 | 40.54717 | -7.21539 | 36858 ft | 421 kts | 224° |
| 2026-04-29 10:04 | 40.50502 | -7.26884 | 36860 ft | 421 kts | 224° |
| 2026-04-29 10:05 | 40.46303 | -7.32186 | 36858 ft | 422 kts | 224° |
| 2026-04-29 10:05 | 40.42067 | -7.37519 | 36859 ft | 422 kts | 224° |
| 2026-04-29 10:06 | 40.37826 | -7.42844 | 36828 ft | 421 kts | 224° |
| 2026-04-29 10:06 | 40.35733 | -7.45476 | 36562 ft | 412 kts | 224° |
| 2026-04-29 10:06 | 40.33688 | -7.48048 | 36261 ft | 404 kts | 224° |
| 2026-04-29 10:07 | 40.31678 | -7.50575 | 35911 ft | 397 kts | 224° |
| 2026-04-29 10:07 | 40.29710 | -7.53039 | 35769 ft | 387 kts | 224° |
| 2026-04-29 10:07 | 40.27799 | -7.55426 | 35506 ft | 384 kts | 224° |
| 2026-04-29 10:07 | 40.25874 | -7.57828 | 35136 ft | 381 kts | 224° |
| 2026-04-29 10:08 | 40.23959 | -7.60221 | 34791 ft | 380 kts | 224° |
| 2026-04-29 10:08 | 40.22041 | -7.62616 | 34435 ft | 382 kts | 224° |
| 2026-04-29 10:08 | 40.20245 | -7.64857 | 34109 ft | 381 kts | 224° |
| 2026-04-29 10:08 | 40.18323 | -7.67250 | 33746 ft | 381 kts | 224° |
| 2026-04-29 10:09 | 40.16401 | -7.69640 | 33341 ft | 382 kts | 224° |
| 2026-04-29 10:09 | 40.14473 | -7.72041 | 32946 ft | 383 kts | 223° |
| 2026-04-29 10:09 | 40.12540 | -7.74448 | 32548 ft | 385 kts | 223° |
| 2026-04-29 10:09 | 40.10601 | -7.76860 | 32165 ft | 386 kts | 223° |
| 2026-04-29 10:10 | 40.08646 | -7.79287 | 31790 ft | 401 kts | 223° |
| 2026-04-29 10:10 | 40.06600 | -7.81822 | 31415 ft | 409 kts | 222° |
| 2026-04-29 10:10 | 40.04534 | -7.84382 | 31030 ft | 410 kts | 222° |
| 2026-04-29 10:10 | 40.02471 | -7.86941 | 30530 ft | 408 kts | 222° |
| 2026-04-29 10:11 | 40.00417 | -7.89488 | 29941 ft | 407 kts | 221° |
| 2026-04-29 10:11 | 39.98369 | -7.92019 | 29284 ft | 405 kts | 221° |
| 2026-04-29 10:11 | 39.96333 | -7.94532 | 28615 ft | 402 kts | 222° |
| 2026-04-29 10:11 | 39.94317 | -7.97017 | 28040 ft | 397 kts | 222° |
| 2026-04-29 10:12 | 39.92316 | -7.99479 | 27404 ft | 395 kts | 222° |
| 2026-04-29 10:12 | 39.90352 | -8.01899 | 26781 ft | 393 kts | 222° |
| 2026-04-29 10:12 | 39.88377 | -8.04335 | 26162 ft | 390 kts | 222° |
| 2026-04-29 10:12 | 39.86413 | -8.06757 | 25576 ft | 387 kts | 221° |
| 2026-04-29 10:13 | 39.84464 | -8.09159 | 24993 ft | 385 kts | 221° |
| 2026-04-29 10:13 | 39.82522 | -8.11544 | 24415 ft | 383 kts | 221° |
| 2026-04-29 10:13 | 39.80590 | -8.13910 | 23852 ft | 380 kts | 221° |
| 2026-04-29 10:13 | 39.78668 | -8.16259 | 23272 ft | 378 kts | 221° |
| 2026-04-29 10:14 | 39.76759 | -8.18597 | 22610 ft | 376 kts | 221° |
| 2026-04-29 10:14 | 39.74860 | -8.20920 | 21958 ft | 375 kts | 221° |
| 2026-04-29 10:14 | 39.72963 | -8.23239 | 21338 ft | 374 kts | 221° |
| 2026-04-29 10:14 | 39.71071 | -8.25546 | 20712 ft | 373 kts | 221° |
| 2026-04-29 10:15 | 39.69211 | -8.27816 | 20119 ft | 371 kts | 221° |
| 2026-04-29 10:15 | 39.67338 | -8.30103 | 19527 ft | 369 kts | 221° |
| 2026-04-29 10:15 | 39.65471 | -8.32385 | 18939 ft | 367 kts | 221° |
| 2026-04-29 10:15 | 39.63614 | -8.34651 | 18390 ft | 366 kts | 221° |
| 2026-04-29 10:16 | 39.61759 | -8.36909 | 17774 ft | 366 kts | 221° |
| 2026-04-29 10:16 | 39.59906 | -8.39163 | 17140 ft | 365 kts | 221° |
| 2026-04-29 10:16 | 39.58051 | -8.41418 | 16507 ft | 366 kts | 221° |
| 2026-04-29 10:16 | 39.56192 | -8.43678 | 15896 ft | 367 kts | 221° |
| 2026-04-29 10:17 | 39.54325 | -8.45942 | 15290 ft | 368 kts | 221° |
| 2026-04-29 10:17 | 39.52484 | -8.48175 | 14709 ft | 367 kts | 222° |
| 2026-04-29 10:17 | 39.50638 | -8.50414 | 14117 ft | 357 kts | 222° |
| 2026-04-29 10:17 | 39.48869 | -8.52561 | 13530 ft | 341 kts | 222° |
| 2026-04-29 10:18 | 39.47169 | -8.54619 | 12889 ft | 327 kts | 221° |
| 2026-04-29 10:18 | 39.45536 | -8.56593 | 12266 ft | 316 kts | 221° |
| 2026-04-29 10:18 | 39.43957 | -8.58502 | 11650 ft | 306 kts | 221° |
| 2026-04-29 10:18 | 39.42433 | -8.60343 | 11206 ft | 293 kts | 221° |
| 2026-04-29 10:19 | 39.40977 | -8.62102 | 10788 ft | 282 kts | 221° |
| 2026-04-29 10:19 | 39.39552 | -8.63822 | 10376 ft | 281 kts | 221° |
| 2026-04-29 10:19 | 39.38121 | -8.65542 | 9962 ft | 280 kts | 221° |
| 2026-04-29 10:19 | 39.36731 | -8.67213 | 9538 ft | 275 kts | 221° |
| 2026-04-29 10:20 | 39.35334 | -8.68890 | 9095 ft | 273 kts | 221° |
| 2026-04-29 10:20 | 39.33965 | -8.70577 | 8661 ft | 272 kts | 226° |
| 2026-04-29 10:20 | 39.32824 | -8.72532 | 8219 ft | 272 kts | 238° |
| 2026-04-29 10:20 | 39.32016 | -8.74750 | 7904 ft | 273 kts | 250° |
| 2026-04-29 10:21 | 39.31570 | -8.77137 | 7866 ft | 276 kts | 261° |
| 2026-04-29 10:21 | 39.31480 | -8.79620 | 7877 ft | 278 kts | 269° |
| 2026-04-29 10:21 | 39.31497 | -8.82117 | 7876 ft | 278 kts | 268° |
| 2026-04-29 10:21 | 39.31508 | -8.84617 | 7876 ft | 278 kts | 268° |
| 2026-04-29 10:22 | 39.31517 | -8.87119 | 7874 ft | 278 kts | 268° |
| 2026-04-29 10:22 | 39.31524 | -8.89583 | 7876 ft | 279 kts | 268° |
| 2026-04-29 10:22 | 39.31533 | -8.92085 | 7875 ft | 278 kts | 268° |
| 2026-04-29 10:22 | 39.31540 | -8.94587 | 7876 ft | 279 kts | 268° |
| 2026-04-29 10:23 | 39.31539 | -8.97090 | 7878 ft | 278 kts | 265° |
| 2026-04-29 10:23 | 39.31124 | -8.99454 | 7868 ft | 262 kts | 243° |
| 2026-04-29 10:23 | 39.30124 | -9.01302 | 7874 ft | 243 kts | 222° |
| 2026-04-29 10:23 | 39.28747 | -9.02500 | 7881 ft | 238 kts | 202° |
| 2026-04-29 10:24 | 39.27147 | -9.02992 | 7873 ft | 237 kts | 183° |
| 2026-04-29 10:24 | 39.25485 | -9.03031 | 7646 ft | 241 kts | 181° |
| 2026-04-29 10:24 | 39.23801 | -9.03063 | 7272 ft | 242 kts | 182° |
| 2026-04-29 10:24 | 39.22135 | -9.03096 | 6942 ft | 242 kts | 182° |
| 2026-04-29 10:25 | 39.20462 | -9.03128 | 6664 ft | 239 kts | 182° |
| 2026-04-29 10:25 | 39.18814 | -9.03162 | 6398 ft | 235 kts | 182° |
| 2026-04-29 10:25 | 39.17191 | -9.03197 | 6146 ft | 231 kts | 182° |
| 2026-04-29 10:25 | 39.15600 | -9.03233 | 5951 ft | 227 kts | 182° |
| 2026-04-29 10:26 | 39.14034 | -9.03271 | 5722 ft | 222 kts | 182° |
| 2026-04-29 10:26 | 39.12503 | -9.03306 | 5538 ft | 217 kts | 182° |
| 2026-04-29 10:26 | 39.11004 | -9.03340 | 5332 ft | 214 kts | 182° |
| 2026-04-29 10:26 | 39.09522 | -9.03376 | 5151 ft | 212 kts | 182° |
| 2026-04-29 10:27 | 39.06675 | -9.03441 | 4876 ft | 198 kts | 181° |
| 2026-04-29 10:27 | 39.05354 | -9.03467 | 4719 ft | 188 kts | 182° |
| 2026-04-29 10:27 | 39.04063 | -9.03492 | 4579 ft | 185 kts | 182° |
| 2026-04-29 10:28 | 39.02777 | -9.03518 | 4401 ft | 184 kts | 182° |
| 2026-04-29 10:28 | 39.01491 | -9.03547 | 4268 ft | 185 kts | 181° |
| 2026-04-29 10:28 | 39.00204 | -9.03576 | 4120 ft | 184 kts | 182° |
| 2026-04-29 10:28 | 38.98925 | -9.03604 | 4031 ft | 184 kts | 183° |
| 2026-04-29 10:29 | 38.97645 | -9.03636 | 3998 ft | 183 kts | 184° |
| 2026-04-29 10:29 | 38.96392 | -9.03836 | 3913 ft | 182 kts | 200° |
| 2026-04-29 10:29 | 38.95206 | -9.04438 | 3710 ft | 184 kts | 203° |
| 2026-04-29 10:29 | 38.94050 | -9.05054 | 3477 ft | 182 kts | 204° |
| 2026-04-29 10:30 | 38.92896 | -9.05672 | 3250 ft | 176 kts | 204° |
| 2026-04-29 10:30 | 38.91816 | -9.06253 | 3036 ft | 163 kts | 205° |
| 2026-04-29 10:30 | 38.90785 | -9.06807 | 2808 ft | 160 kts | 204° |
| 2026-04-29 10:30 | 38.89756 | -9.07360 | 2590 ft | 159 kts | 205° |
| 2026-04-29 10:31 | 38.88741 | -9.07905 | 2379 ft | 159 kts | 205° |
| 2026-04-29 10:31 | 38.87718 | -9.08454 | 2171 ft | 158 kts | 205° |
| 2026-04-29 10:31 | 38.86710 | -9.08995 | 1958 ft | 156 kts | 205° |
| 2026-04-29 10:31 | 38.85746 | -9.09512 | 1744 ft | 145 kts | 204° |
| 2026-04-29 10:32 | 38.84855 | -9.09989 | 1555 ft | 138 kts | 204° |
| 2026-04-29 10:32 | 38.83987 | -9.10455 | 1372 ft | 133 kts | 205° |
| 2026-04-29 10:32 | 38.83132 | -9.10913 | 1197 ft | 133 kts | 206° |
| 2026-04-29 10:32 | 38.82277 | -9.11372 | 1026 ft | 135 kts | 203° |
| 2026-04-29 10:33 | 38.81424 | -9.11835 | 761 ft | 132 kts | 204° |
| 2026-04-29 10:33 | 38.80568 | -9.12291 | 574 ft | 132 kts | 206° |
| 2026-04-29 10:33 | 38.79738 | -9.12749 | 408 ft | 129 kts | 205° |
| 2026-04-29 10:33 | 38.78916 | -9.13171 | 362 ft | 120 kts | 202° |
| 2026-04-29 10:34 | 38.78321 | -9.13508 | 369 ft | 74 kts | 201° |
| 2026-04-29 10:34 | 38.77918 | -9.13713 | 368 ft | 52 kts | 199° |
| 2026-04-29 10:34 | 38.77608 | -9.13761 | 363 ft | 25 kts | 178° |
| 2026-04-29 10:34 | 38.77436 | -9.13751 | 362 ft | 21 kts | 181° |
| 2026-04-29 10:35 | 38.77422 | -9.13753 | 363 ft | 0 kts | 187° |
| 2026-04-29 10:37 | 38.77420 | -9.13753 | 363 ft | 3 kts | 187° |
| 2026-04-29 10:37 | 38.77351 | -9.13781 | 360 ft | 14 kts | 204° |
| 2026-04-29 10:37 | 38.77252 | -9.13834 | 357 ft | 17 kts | 200° |
| 2026-04-29 10:37 | 38.77138 | -9.13894 | 357 ft | 18 kts | 202° |
| 2026-04-29 10:38 | 38.77015 | -9.13877 | 354 ft | 20 kts | 167° |
| 2026-04-29 10:38 | 38.76880 | -9.13841 | 350 ft | 17 kts | 168° |
| 2026-04-29 10:38 | 38.76776 | -9.13812 | 349 ft | 17 kts | 167° |
| 2026-04-29 10:38 | 38.76654 | -9.13779 | 349 ft | 15 kts | 168° |
| 2026-04-29 10:39 | 38.76596 | -9.13838 | 351 ft | 12 kts | 256° |
| 2026-04-29 10:39 | 38.76570 | -9.13927 | 350 ft | 4 kts | 216° |
| 2026-04-29 10:39 | 38.76559 | -9.13931 | 347 ft | 0 kts | 189° |
| 2026-04-29 10:39 | 38.76541 | -9.13931 | 350 ft | 8 kts | 174° |
| 2026-04-29 10:40 | 38.76518 | -9.13868 | 348 ft | 8 kts | 88° |
| 2026-04-29 10:40 | 38.76493 | -9.13843 | 350 ft | 0 kts | 161° |
| 2026-04-29 10:40 | 38.76478 | -9.13839 | 350 ft | 6 kts | 169° |
| 2026-04-29 10:40 | 38.76446 | -9.13831 | 348 ft | 1 kts | 169° |
| 2026-04-29 10:41 | 38.76443 | -9.13831 | 348 ft | 0 kts | 168° |